sensor_id;sensor_type;location;lat;lon;timestamp;pressure;altitude;pressure_sealevel;temperature;humidity
65880;BME280;52661;51.364;6.054;2024-03-22T00:02:23;101822.94;;;11.25;100.00
65880;BME280;52661;51.364;6.054;2024-03-22T00:04:49;101812.03;;;11.22;100.00
65880;BME280;52661;51.364;6.054;2024-03-22T00:07:14;101807.81;;;11.24;100.00
65880;BME280;52661;51.364;6.054;2024-03-22T00:09:39;101799.22;;;11.22;100.00
65880;BME280;52661;51.364;6.054;2024-03-22T00:12:05;101793.50;;;11.27;100.00
65880;BME280;52661;51.364;6.054;2024-03-22T00:14:30;101803.56;;;11.27;100.00
65880;BME280;52661;51.364;6.054;2024-03-22T00:16:56;101793.50;;;11.27;100.00
65880;BME280;52661;51.364;6.054;2024-03-22T00:19:21;101796.94;;;11.24;100.00
65880;BME280;52661;51.364;6.054;2024-03-22T00:21:46;101791.09;;;11.22;100.00
65880;BME280;52661;51.364;6.054;2024-03-22T00:24:12;101791.09;;;11.22;100.00
65880;BME280;52661;51.364;6.054;2024-03-22T00:26:37;101790.69;;;11.20;100.00
65880;BME280;52661;51.364;6.054;2024-03-22T00:29:02;101780.25;;;11.26;100.00
65880;BME280;52661;51.364;6.054;2024-03-22T00:31:28;101783.72;;;11.23;100.00
65880;BME280;52661;51.364;6.054;2024-03-22T00:33:53;101782.19;;;11.25;100.00
65880;BME280;52661;51.364;6.054;2024-03-22T00:36:18;101781.00;;;11.23;100.00
65880;BME280;52661;51.364;6.054;2024-03-22T00:38:44;101774.88;;;11.29;100.00
65880;BME280;52661;51.364;6.054;2024-03-22T00:41:09;101776.03;;;11.28;100.00
65880;BME280;52661;51.364;6.054;2024-03-22T00:43:35;101773.28;;;11.25;100.00
65880;BME280;52661;51.364;6.054;2024-03-22T00:46:00;101767.47;;;11.26;100.00
65880;BME280;52661;51.364;6.054;2024-03-22T00:48:27;101767.88;;;11.28;100.00
65880;BME280;52661;51.364;6.054;2024-03-22T00:50:53;101766.72;;;11.29;100.00
65880;BME280;52661;51.364;6.054;2024-03-22T00:53:18;101764.44;;;11.31;100.00
65880;BME280;52661;51.364;6.054;2024-03-22T00:55:43;101757.06;;;11.32;100.00
65880;BME280;52661;51.364;6.054;2024-03-22T00:58:09;101755.09;;;11.32;100.00
65880;BME280;52661;51.364;6.054;2024-03-22T01:00:34;101753.19;;;11.33;100.00
65880;BME280;52661;51.364;6.054;2024-03-22T01:03:02;101762.13;;;11.33;100.00
65880;BME280;52661;51.364;6.054;2024-03-22T01:05:27;101746.59;;;11.34;100.00
65880;BME280;52661;51.364;6.054;2024-03-22T01:07:53;101749.38;;;11.38;100.00
65880;BME280;52661;51.364;6.054;2024-03-22T01:10:18;101739.69;;;11.40;100.00
65880;BME280;52661;51.364;6.054;2024-03-22T01:12:44;101733.06;;;11.38;100.00
65880;BME280;52661;51.364;6.054;2024-03-22T01:15:09;101733.94;;;11.45;100.00
65880;BME280;52661;51.364;6.054;2024-03-22T01:17:34;101727.66;;;11.41;100.00
65880;BME280;52661;51.364;6.054;2024-03-22T01:20:00;101715.59;;;11.39;100.00
65880;BME280;52661;51.364;6.054;2024-03-22T01:22:25;101714.13;;;11.45;100.00
65880;BME280;52661;51.364;6.054;2024-03-22T01:24:50;101707.53;;;11.46;100.00
65880;BME280;52661;51.364;6.054;2024-03-22T01:27:16;101711.44;;;11.48;100.00
65880;BME280;52661;51.364;6.054;2024-03-22T01:29:41;101707.56;;;11.49;100.00
65880;BME280;52661;51.364;6.054;2024-03-22T01:32:07;101698.28;;;11.50;100.00
65880;BME280;52661;51.364;6.054;2024-03-22T01:34:32;101698.28;;;11.50;100.00
65880;BME280;52661;51.364;6.054;2024-03-22T01:36:58;101695.16;;;11.52;100.00
65880;BME280;52661;51.364;6.054;2024-03-22T01:39:23;101697.88;;;11.52;100.00
65880;BME280;52661;51.364;6.054;2024-03-22T01:41:52;101683.16;;;11.53;100.00
65880;BME280;52661;51.364;6.054;2024-03-22T01:44:17;101676.56;;;11.54;100.00
65880;BME280;52661;51.364;6.054;2024-03-22T01:46:44;101676.94;;;11.52;100.00
65880;BME280;52661;51.364;6.054;2024-03-22T01:49:10;101675.34;;;11.51;100.00
65880;BME280;52661;51.364;6.054;2024-03-22T01:51:39;101662.94;;;11.50;100.00
65880;BME280;52661;51.364;6.054;2024-03-22T01:54:10;101669.91;;;11.51;100.00
65880;BME280;52661;51.364;6.054;2024-03-22T01:56:37;101678.47;;;11.50;100.00
65880;BME280;52661;51.364;6.054;2024-03-22T01:59:04;101692.06;;;11.50;100.00
65880;BME280;52661;51.364;6.054;2024-03-22T02:01:30;101687.81;;;11.52;100.00
65880;BME280;52661;51.364;6.054;2024-03-22T02:03:56;101681.22;;;11.53;100.00
65880;BME280;52661;51.364;6.054;2024-03-22T02:06:21;101678.09;;;11.55;100.00
65880;BME280;52661;51.364;6.054;2024-03-22T02:08:47;101672.66;;;11.55;100.00
65880;BME280;52661;51.364;6.054;2024-03-22T02:11:12;101675.03;;;11.56;100.00
65880;BME280;52661;51.364;6.054;2024-03-22T02:13:38;101669.94;;;11.55;100.00
65880;BME280;52661;51.364;6.054;2024-03-22T02:16:04;101663.38;;;11.56;100.00
65880;BME280;52661;51.364;6.054;2024-03-22T02:18:29;101661.06;;;11.58;100.00
65880;BME280;52661;51.364;6.054;2024-03-22T02:20:56;101652.50;;;11.56;100.00
65880;BME280;52661;51.364;6.054;2024-03-22T02:23:42;101647.06;;;11.56;100.00
65880;BME280;52661;51.364;6.054;2024-03-22T02:26:07;101642.75;;;11.55;100.00
65880;BME280;52661;51.364;6.054;2024-03-22T02:28:34;101646.66;;;11.54;100.00
65880;BME280;52661;51.364;6.054;2024-03-22T02:31:01;101647.84;;;11.56;100.00
65880;BME280;52661;51.364;6.054;2024-03-22T02:33:26;101634.59;;;11.55;100.00
65880;BME280;52661;51.364;6.054;2024-03-22T02:35:52;101638.13;;;11.55;100.00
65880;BME280;52661;51.364;6.054;2024-03-22T02:38:18;101623.34;;;11.53;100.00
65880;BME280;52661;51.364;6.054;2024-03-22T02:40:44;101615.19;;;11.53;100.00
65880;BME280;52661;51.364;6.054;2024-03-22T02:43:10;101619.78;;;11.49;100.00
65880;BME280;52661;51.364;6.054;2024-03-22T02:45:35;101618.25;;;11.51;100.00
65880;BME280;52661;51.364;6.054;2024-03-22T02:48:01;101620.63;;;11.53;100.00
65880;BME280;52661;51.364;6.054;2024-03-22T02:50:26;101615.53;;;11.51;100.00
65880;BME280;52661;51.364;6.054;2024-03-22T02:52:52;101610.06;;;11.48;100.00
65880;BME280;52661;51.364;6.054;2024-03-22T02:55:18;101608.56;;;11.50;100.00
65880;BME280;52661;51.364;6.054;2024-03-22T02:57:43;101605.78;;;11.47;100.00
65880;BME280;52661;51.364;6.054;2024-03-22T03:00:09;101605.78;;;11.47;100.00
65880;BME280;52661;51.364;6.054;2024-03-22T03:02:35;101602.31;;;11.46;100.00
65880;BME280;52661;51.364;6.054;2024-03-22T03:05:00;101602.66;;;11.45;100.00
65880;BME280;52661;51.364;6.054;2024-03-22T03:07:26;101595.66;;;11.44;100.00
65880;BME280;52661;51.364;6.054;2024-03-22T03:09:52;101596.81;;;11.43;100.00
65880;BME280;52661;51.364;6.054;2024-03-22T03:12:18;101594.88;;;11.43;100.00
65880;BME280;52661;51.364;6.054;2024-03-22T03:14:43;101592.53;;;11.42;100.00
65880;BME280;52661;51.364;6.054;2024-03-22T03:17:08;101584.75;;;11.40;100.00
65880;BME280;52661;51.364;6.054;2024-03-22T03:19:34;101580.84;;;11.38;100.00
65880;BME280;52661;51.364;6.054;2024-03-22T03:21:59;101576.97;;;11.39;100.00
65880;BME280;52661;51.364;6.054;2024-03-22T03:24:24;101571.13;;;11.36;100.00
65880;BME280;52661;51.364;6.054;2024-03-22T03:26:50;101573.84;;;11.36;100.00
65880;BME280;52661;51.364;6.054;2024-03-22T03:29:15;101562.19;;;11.36;100.00
65880;BME280;52661;51.364;6.054;2024-03-22T03:31:40;101559.84;;;11.34;100.00
65880;BME280;52661;51.364;6.054;2024-03-22T03:34:06;101545.09;;;11.35;100.00
65880;BME280;52661;51.364;6.054;2024-03-22T03:36:31;101547.44;;;11.37;100.00
65880;BME280;52661;51.364;6.054;2024-03-22T03:38:56;101539.69;;;11.35;100.00
65880;BME280;52661;51.364;6.054;2024-03-22T03:41:22;101543.91;;;11.33;100.00
65880;BME280;52661;51.364;6.054;2024-03-22T03:43:47;101529.91;;;11.31;100.00
65880;BME280;52661;51.364;6.054;2024-03-22T03:46:12;101541.97;;;11.33;100.00
65880;BME280;52661;51.364;6.054;2024-03-22T03:48:38;101522.94;;;11.33;100.00
65880;BME280;52661;51.364;6.054;2024-03-22T03:51:05;101527.22;;;11.34;100.00
65880;BME280;52661;51.364;6.054;2024-03-22T03:53:30;101523.38;;;11.35;100.00
65880;BME280;52661;51.364;6.054;2024-03-22T03:55:56;101533.06;;;11.36;100.00
65880;BME280;52661;51.364;6.054;2024-03-22T03:58:21;101523.78;;;11.41;100.00
65880;BME280;52661;51.364;6.054;2024-03-22T04:00:47;101526.13;;;11.39;100.00
65880;BME280;52661;51.364;6.054;2024-03-22T04:03:13;101526.88;;;11.40;100.00
65880;BME280;52661;51.364;6.054;2024-03-22T04:05:39;101518.72;;;11.40;100.00
65880;BME280;52661;51.364;6.054;2024-03-22T04:08:04;101504.41;;;11.43;100.00
65880;BME280;52661;51.364;6.054;2024-03-22T04:10:30;101507.13;;;11.43;100.00
65880;BME280;52661;51.364;6.054;2024-03-22T04:12:55;101500.47;;;11.40;100.00
65880;BME280;52661;51.364;6.054;2024-03-22T04:15:20;101497.00;;;11.43;100.00
65880;BME280;52661;51.364;6.054;2024-03-22T04:17:46;101498.19;;;11.42;100.00
65880;BME280;52661;51.364;6.054;2024-03-22T04:20:11;101500.16;;;11.45;100.00
65880;BME280;52661;51.364;6.054;2024-03-22T04:22:37;101481.47;;;11.44;100.00
65880;BME280;52661;51.364;6.054;2024-03-22T04:25:03;101482.66;;;11.43;100.00
65880;BME280;52661;51.364;6.054;2024-03-22T04:27:28;101489.63;;;11.44;100.00
65880;BME280;52661;51.364;6.054;2024-03-22T04:29:53;101486.91;;;11.44;100.00
65880;BME280;52661;51.364;6.054;2024-03-22T04:32:19;101481.47;;;11.44;100.00
65880;BME280;52661;51.364;6.054;2024-03-22T04:34:44;101486.56;;;11.45;100.00
65880;BME280;52661;51.364;6.054;2024-03-22T04:37:10;101476.88;;;11.48;100.00
65880;BME280;52661;51.364;6.054;2024-03-22T04:39:37;101482.69;;;11.46;100.00
65880;BME280;52661;51.364;6.054;2024-03-22T04:42:02;101481.16;;;11.49;100.00
65880;BME280;52661;51.364;6.054;2024-03-22T04:44:29;101483.44;;;11.47;100.00
65880;BME280;52661;51.364;6.054;2024-03-22T04:46:54;101479.97;;;11.46;100.00
65880;BME280;52661;51.364;6.054;2024-03-22T04:49:19;101483.09;;;11.48;100.00
65880;BME280;52661;51.364;6.054;2024-03-22T04:51:45;101484.63;;;11.46;100.00
65880;BME280;52661;51.364;6.054;2024-03-22T04:54:10;101487.72;;;11.48;100.00
65880;BME280;52661;51.364;6.054;2024-03-22T04:56:35;101479.56;;;11.44;100.00
65880;BME280;52661;51.364;6.054;2024-03-22T04:59:01;101481.13;;;11.45;100.00
65880;BME280;52661;51.364;6.054;2024-03-22T05:01:26;101483.41;;;11.43;100.00
65880;BME280;52661;51.364;6.054;2024-03-22T05:03:51;101467.09;;;11.43;100.00
65880;BME280;52661;51.364;6.054;2024-03-22T05:06:17;101474.50;;;11.43;100.00
65880;BME280;52661;51.364;6.054;2024-03-22T05:08:42;101483.41;;;11.43;100.00
65880;BME280;52661;51.364;6.054;2024-03-22T05:11:08;101470.59;;;11.40;100.00
65880;BME280;52661;51.364;6.054;2024-03-22T05:13:33;101481.09;;;11.42;100.00
65880;BME280;52661;51.364;6.054;2024-03-22T05:15:59;101484.97;;;11.41;100.00
65880;BME280;52661;51.364;6.054;2024-03-22T05:18:24;101476.81;;;11.41;100.00
65880;BME280;52661;51.364;6.054;2024-03-22T05:20:49;101481.09;;;11.42;100.00
65880;BME280;52661;51.364;6.054;2024-03-22T05:23:15;101479.16;;;11.42;100.00
65880;BME280;52661;51.364;6.054;2024-03-22T05:25:42;101471.75;;;11.39;100.00
65880;BME280;52661;51.364;6.054;2024-03-22T05:28:07;101469.44;;;11.41;100.00
65880;BME280;52661;51.364;6.054;2024-03-22T05:30:33;101470.19;;;11.38;100.00
65880;BME280;52661;51.364;6.054;2024-03-22T05:32:58;101463.59;;;11.39;100.00
65880;BME280;52661;51.364;6.054;2024-03-22T05:35:23;101465.13;;;11.36;100.00
65880;BME280;52661;51.364;6.054;2024-03-22T05:37:49;101462.81;;;11.39;100.00
65880;BME280;52661;51.364;6.054;2024-03-22T05:40:15;101456.19;;;11.36;100.00
65880;BME280;52661;51.364;6.054;2024-03-22T05:42:40;101464.34;;;11.40;100.00
65880;BME280;52661;51.364;6.054;2024-03-22T05:45:06;101456.59;;;11.38;100.00
65880;BME280;52661;51.364;6.054;2024-03-22T05:47:32;101451.16;;;11.38;100.00
65880;BME280;52661;51.364;6.054;2024-03-22T05:49:58;101453.50;;;11.40;100.00
65880;BME280;52661;51.364;6.054;2024-03-22T05:52:24;101454.66;;;11.39;100.00
65880;BME280;52661;51.364;6.054;2024-03-22T05:54:49;101454.66;;;11.39;100.00
65880;BME280;52661;51.364;6.054;2024-03-22T05:57:14;101456.97;;;11.36;100.00
65880;BME280;52661;51.364;6.054;2024-03-22T05:59:39;101457.75;;;11.37;100.00
65880;BME280;52661;51.364;6.054;2024-03-22T06:02:05;101460.47;;;11.37;100.00
65880;BME280;52661;51.364;6.054;2024-03-22T06:04:31;101447.63;;;11.34;100.00
65880;BME280;52661;51.364;6.054;2024-03-22T06:06:56;101447.66;;;11.38;100.00
65880;BME280;52661;51.364;6.054;2024-03-22T06:09:27;101452.69;;;11.35;100.00
65880;BME280;52661;51.364;6.054;2024-03-22T06:12:05;101446.09;;;11.36;100.00
65880;BME280;52661;51.364;6.054;2024-03-22T06:14:30;101444.16;;;11.37;100.00
65880;BME280;52661;51.364;6.054;2024-03-22T06:16:55;101442.59;;;11.36;100.00
65880;BME280;52661;51.364;6.054;2024-03-22T06:19:21;101440.66;;;11.36;100.00
65880;BME280;52661;51.364;6.054;2024-03-22T06:21:46;101440.28;;;11.38;100.00
65880;BME280;52661;51.364;6.054;2024-03-22T06:24:11;101438.34;;;11.39;100.00
65880;BME280;52661;51.364;6.054;2024-03-22T06:26:37;101446.91;;;11.41;100.00
65880;BME280;52661;51.364;6.054;2024-03-22T06:29:02;101439.91;;;11.40;100.00
65880;BME280;52661;51.364;6.054;2024-03-22T06:31:28;101436.06;;;11.44;100.00
65880;BME280;52661;51.364;6.054;2024-03-22T06:33:54;101429.84;;;11.44;100.00
65880;BME280;52661;51.364;6.054;2024-03-22T06:36:19;101434.50;;;11.43;100.00
65880;BME280;52661;51.364;6.054;2024-03-22T06:38:44;101429.50;;;11.49;100.00
65880;BME280;52661;51.364;6.054;2024-03-22T06:41:10;101433.78;;;11.50;100.00
65880;BME280;52661;51.364;6.054;2024-03-22T06:43:35;101433.41;;;11.51;100.00
65880;BME280;52661;51.364;6.054;2024-03-22T06:46:00;101437.72;;;11.56;100.00
65880;BME280;52661;51.364;6.054;2024-03-22T06:48:26;101438.50;;;11.56;100.00
65880;BME280;52661;51.364;6.054;2024-03-22T06:50:51;101447.44;;;11.57;100.00
65880;BME280;52661;51.364;6.054;2024-03-22T06:53:16;101440.44;;;11.59;100.00
65880;BME280;52661;51.364;6.054;2024-03-22T06:55:42;101438.53;;;11.60;100.00
65880;BME280;52661;51.364;6.054;2024-03-22T06:58:07;101441.25;;;11.63;100.00
65880;BME280;52661;51.364;6.054;2024-03-22T07:00:32;101439.72;;;11.66;100.00
65880;BME280;52661;51.364;6.054;2024-03-22T07:03:01;101437.41;;;11.64;100.00
65880;BME280;52661;51.364;6.054;2024-03-22T07:05:27;101433.09;;;11.63;100.00
65880;BME280;52661;51.364;6.054;2024-03-22T07:07:53;101427.28;;;11.65;100.00
65880;BME280;52661;51.364;6.054;2024-03-22T07:10:21;101426.91;;;11.66;100.00
65880;BME280;52661;51.364;6.054;2024-03-22T07:12:47;101431.59;;;11.69;100.00
65880;BME280;52661;51.364;6.054;2024-03-22T07:15:13;101434.34;;;11.73;100.00
65880;BME280;52661;51.364;6.054;2024-03-22T07:17:38;101431.28;;;11.74;100.00
65880;BME280;52661;51.364;6.054;2024-03-22T07:20:04;101437.13;;;11.80;100.00
65880;BME280;52661;51.364;6.054;2024-03-22T07:22:30;101423.13;;;11.78;100.00
65880;BME280;52661;51.364;6.054;2024-03-22T07:24:55;101428.16;;;11.76;100.00
65880;BME280;52661;51.364;6.054;2024-03-22T07:27:21;101418.88;;;11.80;100.00
65880;BME280;52661;51.364;6.054;2024-03-22T07:29:46;101422.38;;;11.81;100.00
65880;BME280;52661;51.364;6.054;2024-03-22T07:32:12;101425.06;;;11.77;100.00
65880;BME280;52661;51.364;6.054;2024-03-22T07:34:37;101428.94;;;11.76;100.00
65880;BME280;52661;51.364;6.054;2024-03-22T07:37:02;101428.19;;;11.79;100.00
65880;BME280;52661;51.364;6.054;2024-03-22T07:39:29;101428.16;;;11.76;100.00
65880;BME280;52661;51.364;6.054;2024-03-22T07:41:55;101426.19;;;11.73;100.00
65880;BME280;52661;51.364;6.054;2024-03-22T07:44:20;101425.84;;;11.74;100.00
65880;BME280;52661;51.364;6.054;2024-03-22T07:46:46;101430.13;;;11.75;100.00
65880;BME280;52661;51.364;6.054;2024-03-22T07:49:12;101428.56;;;11.74;100.00
65880;BME280;52661;51.364;6.054;2024-03-22T07:51:38;101426.19;;;11.73;100.00
65880;BME280;52661;51.364;6.054;2024-03-22T07:54:03;101427.78;;;11.74;100.00
65880;BME280;52661;51.364;6.054;2024-03-22T07:56:28;101435.19;;;11.80;100.00
65880;BME280;52661;51.364;6.054;2024-03-22T07:58:54;101433.28;;;11.84;100.00
65880;BME280;52661;51.364;6.054;2024-03-22T08:01:20;101437.13;;;11.80;100.00
65880;BME280;52661;51.364;6.054;2024-03-22T08:03:46;101427.47;;;11.86;100.00
65880;BME280;52661;51.364;6.054;2024-03-22T08:06:11;101418.94;;;11.91;100.00
65880;BME280;52661;51.364;6.054;2024-03-22T08:08:37;101424.78;;;11.93;100.00
65880;BME280;52661;51.364;6.054;2024-03-22T08:11:02;101427.91;;;11.99;100.00
65880;BME280;52661;51.364;6.054;2024-03-22T08:13:27;101422.88;;;12.01;100.00
65880;BME280;52661;51.364;6.054;2024-03-22T08:15:52;101427.59;;;12.11;100.00
65880;BME280;52661;51.364;6.054;2024-03-22T08:18:18;101435.00;;;12.14;100.00
65880;BME280;52661;51.364;6.054;2024-03-22T08:20:44;101430.72;;;12.13;100.00
65880;BME280;52661;51.364;6.054;2024-03-22T08:23:09;101427.59;;;12.07;100.00
65880;BME280;52661;51.364;6.054;2024-03-22T08:25:35;101433.38;;;12.02;100.00
65880;BME280;52661;51.364;6.054;2024-03-22T08:28:02;101441.94;;;12.01;100.00
65880;BME280;52661;51.364;6.054;2024-03-22T08:30:27;101437.66;;;12.00;100.00
65880;BME280;52661;51.364;6.054;2024-03-22T08:32:52;101436.09;;;12.02;100.00
65880;BME280;52661;51.364;6.054;2024-03-22T08:35:18;101429.88;;;12.05;100.00
65880;BME280;52661;51.364;6.054;2024-03-22T08:37:43;101421.38;;;12.14;100.00
65880;BME280;52661;51.364;6.054;2024-03-22T08:40:09;101427.66;;;12.21;100.00
65880;BME280;52661;51.364;6.054;2024-03-22T08:42:35;101416.00;;;12.28;100.00
65880;BME280;52661;51.364;6.054;2024-03-22T08:45:00;101415.66;;;12.37;100.00
65880;BME280;52661;51.364;6.054;2024-03-22T08:47:26;101406.72;;;12.40;100.00
65880;BME280;52661;51.364;6.054;2024-03-22T08:49:51;101406.38;;;12.55;100.00
65880;BME280;52661;51.364;6.054;2024-03-22T08:52:16;101403.69;;;12.62;100.00
65880;BME280;52661;51.364;6.054;2024-03-22T08:54:42;101410.28;;;12.58;100.00
65880;BME280;52661;51.364;6.054;2024-03-22T08:57:07;101409.47;;;12.47;100.00
65880;BME280;52661;51.364;6.054;2024-03-22T08:59:33;101413.75;;;12.41;100.00
65880;BME280;52661;51.364;6.054;2024-03-22T09:01:58;101415.69;;;12.40;100.00
65880;BME280;52661;51.364;6.054;2024-03-22T09:04:25;101403.22;;;12.36;100.00
65880;BME280;52661;51.364;6.054;2024-03-22T09:06:50;101411.38;;;12.36;100.00
65880;BME280;52661;51.364;6.054;2024-03-22T09:09:15;101406.31;;;12.38;100.00
65880;BME280;52661;51.364;6.054;2024-03-22T09:11:42;101399.72;;;12.39;100.00
65880;BME280;52661;51.364;6.054;2024-03-22T09:14:07;101395.44;;;12.41;100.00
65880;BME280;52661;51.364;6.054;2024-03-22T09:16:32;101397.00;;;12.42;100.00
65880;BME280;52661;51.364;6.054;2024-03-22T09:18:58;101394.28;;;12.39;100.00
65880;BME280;52661;51.364;6.054;2024-03-22T09:21:23;101388.84;;;12.42;100.00
65880;BME280;52661;51.364;6.054;2024-03-22T09:23:49;101397.75;;;12.36;100.00
65880;BME280;52661;51.364;6.054;2024-03-22T09:26:15;101402.84;;;12.37;100.00
65880;BME280;52661;51.364;6.054;2024-03-22T09:28:40;101402.06;;;12.37;100.00
65880;BME280;52661;51.364;6.054;2024-03-22T09:31:07;101401.28;;;12.40;100.00
65880;BME280;52661;51.364;6.054;2024-03-22T09:33:35;101399.34;;;12.40;100.00
65880;BME280;52661;51.364;6.054;2024-03-22T09:36:01;101392.31;;;12.36;100.00
65880;BME280;52661;51.364;6.054;2024-03-22T09:38:27;101386.44;;;12.30;100.00
65880;BME280;52661;51.364;6.054;2024-03-22T09:40:53;101382.97;;;12.29;100.00
65880;BME280;52661;51.364;6.054;2024-03-22T09:43:20;101378.28;;;12.30;100.00
65880;BME280;52661;51.364;6.054;2024-03-22T09:45:47;101368.59;;;12.32;100.00
65880;BME280;52661;51.364;6.054;2024-03-22T09:48:14;101369.00;;;12.38;100.00
65880;BME280;52661;51.364;6.054;2024-03-22T09:50:41;101385.31;;;12.38;100.00
65880;BME280;52661;51.364;6.054;2024-03-22T09:53:06;101358.84;;;12.28;100.00
65880;BME280;52661;51.364;6.054;2024-03-22T09:55:33;101374.06;;;12.36;100.00
65880;BME280;52661;51.364;6.054;2024-03-22T09:58:00;101379.09;;;12.34;100.00
65880;BME280;52661;51.364;6.054;2024-03-22T10:00:25;101372.91;;;12.37;100.00
65880;BME280;52661;51.364;6.054;2024-03-22T10:02:51;101365.88;;;12.32;100.00
65880;BME280;52661;51.364;6.054;2024-03-22T10:05:18;101373.28;;;12.43;100.00
65880;BME280;52661;51.364;6.054;2024-03-22T10:07:44;101382.66;;;12.56;100.00
65880;BME280;52661;51.364;6.054;2024-03-22T10:10:09;101356.97;;;12.50;100.00
65880;BME280;52661;51.364;6.054;2024-03-22T10:12:35;101364.00;;;12.65;100.00
65880;BME280;52661;51.364;6.054;2024-03-22T10:15:01;101369.47;;;12.65;100.00
65880;BME280;52661;51.364;6.054;2024-03-22T10:17:31;101365.53;;;12.55;100.00
65880;BME280;52661;51.364;6.054;2024-03-22T10:19:56;101361.22;;;12.40;100.00
65880;BME280;52661;51.364;6.054;2024-03-22T10:22:21;101363.19;;;12.43;100.00
65880;BME280;52661;51.364;6.054;2024-03-22T10:24:47;101358.53;;;12.47;100.00
65880;BME280;52661;51.364;6.054;2024-03-22T10:27:13;101350.72;;;12.42;100.00
65880;BME280;52661;51.364;6.054;2024-03-22T10:29:38;101356.56;;;12.41;100.00
65880;BME280;52661;51.364;6.054;2024-03-22T10:32:05;101348.03;;;12.53;100.00
65880;BME280;52661;51.364;6.054;2024-03-22T10:34:32;101342.97;;;12.48;100.00
65880;BME280;52661;51.364;6.054;2024-03-22T10:37:00;101353.47;;;12.56;100.00
65880;BME280;52661;51.364;6.054;2024-03-22T10:39:26;101344.50;;;12.49;100.00
65880;BME280;52661;51.364;6.054;2024-03-22T10:41:52;101338.28;;;12.45;100.00
65880;BME280;52661;51.364;6.054;2024-03-22T10:44:18;101341.38;;;12.32;100.00
65880;BME280;52661;51.364;6.054;2024-03-22T10:46:45;101342.16;;;12.37;100.00
65880;BME280;52661;51.364;6.054;2024-03-22T10:49:20;101343.69;;;12.27;100.00
65880;BME280;52661;51.364;6.054;2024-03-22T10:51:53;101340.97;;;12.27;100.00
65880;BME280;52661;51.364;6.054;2024-03-22T10:54:21;101336.69;;;12.19;100.00
65880;BME280;52661;51.364;6.054;2024-03-22T10:56:49;101348.31;;;12.19;100.00
65880;BME280;52661;51.364;6.054;2024-03-22T10:59:23;101338.19;;;12.13;100.00
65880;BME280;52661;51.364;6.054;2024-03-22T11:01:49;101337.41;;;12.16;100.00
65880;BME280;52661;51.364;6.054;2024-03-22T11:04:19;101332.00;;;12.23;100.00
65880;BME280;52661;51.364;6.054;2024-03-22T11:06:48;101332.00;;;12.26;100.00
65880;BME280;52661;51.364;6.054;2024-03-22T11:09:26;101336.28;;;12.27;100.00
65880;BME280;52661;51.364;6.054;2024-03-22T11:11:53;101333.97;;;12.22;100.00
65880;BME280;52661;51.364;6.054;2024-03-22T11:14:19;101333.53;;;12.17;100.00
65880;BME280;52661;51.364;6.054;2024-03-22T11:16:48;101334.66;;;12.05;100.00
65880;BME280;52661;51.364;6.054;2024-03-22T11:19:14;101327.25;;;11.99;100.00
65880;BME280;52661;51.364;6.054;2024-03-22T11:21:39;101321.44;;;12.00;100.00
65880;BME280;52661;51.364;6.054;2024-03-22T11:24:05;101321.03;;;12.02;100.00
65880;BME280;52661;51.364;6.054;2024-03-22T11:26:31;101324.16;;;12.00;100.00
65880;BME280;52661;51.364;6.054;2024-03-22T11:28:58;101322.94;;;11.94;100.00
65880;BME280;52661;51.364;6.054;2024-03-22T11:31:23;101324.94;;;11.97;100.00
65880;BME280;52661;51.364;6.054;2024-03-22T11:33:53;101323.34;;;11.93;100.00
65880;BME280;52661;51.364;6.054;2024-03-22T11:36:18;101329.94;;;11.92;100.00
65880;BME280;52661;51.364;6.054;2024-03-22T11:38:44;101328.00;;;11.89;100.00
65880;BME280;52661;51.364;6.054;2024-03-22T11:41:10;101317.47;;;11.87;100.00
65880;BME280;52661;51.364;6.054;2024-03-22T11:43:36;101319.41;;;11.83;100.00
65880;BME280;52661;51.364;6.054;2024-03-22T11:46:02;101327.22;;;11.88;100.00
65880;BME280;52661;51.364;6.054;2024-03-22T11:48:27;101340.00;;;11.84;100.00
65880;BME280;52661;51.364;6.054;2024-03-22T11:50:53;101332.66;;;11.88;100.00
65880;BME280;52661;51.364;6.054;2024-03-22T11:53:18;101330.28;;;11.83;100.00
65880;BME280;52661;51.364;6.054;2024-03-22T11:55:43;101325.22;;;11.78;100.00
65880;BME280;52661;51.364;6.054;2024-03-22T11:58:09;101329.09;;;11.73;100.00
65880;BME280;52661;51.364;6.054;2024-03-22T12:00:36;101317.34;;;11.66;100.00
65880;BME280;52661;51.364;6.054;2024-03-22T12:03:04;101317.38;;;11.69;100.00
65880;BME280;52661;51.364;6.054;2024-03-22T12:05:31;101311.13;;;11.62;100.00
65880;BME280;52661;51.364;6.054;2024-03-22T12:07:56;101308.72;;;11.46;100.00
65880;BME280;52661;51.364;6.054;2024-03-22T12:10:21;101316.88;;;11.46;100.00
65880;BME280;52661;51.364;6.054;2024-03-22T12:12:47;101309.38;;;11.32;100.00
65880;BME280;52661;51.364;6.054;2024-03-22T12:15:12;101307.88;;;11.35;100.00
65880;BME280;52661;51.364;6.054;2024-03-22T12:17:37;101297.38;;;11.37;100.00
65880;BME280;52661;51.364;6.054;2024-03-22T12:20:06;101295.47;;;11.41;100.00
65880;BME280;52661;51.364;6.054;2024-03-22T12:22:33;101288.47;;;11.40;100.00
65880;BME280;52661;51.364;6.054;2024-03-22T12:24:59;101281.88;;;11.38;100.00
65880;BME280;52661;51.364;6.054;2024-03-22T12:27:24;101284.25;;;11.46;100.00
65880;BME280;52661;51.364;6.054;2024-03-22T12:29:50;101274.88;;;11.40;100.00
65880;BME280;52661;51.364;6.054;2024-03-22T12:32:15;101278.81;;;11.43;100.00
65880;BME280;52661;51.364;6.054;2024-03-22T12:34:40;101273.41;;;11.50;100.00